sensor_id;sensor_type;location;lat;lon;timestamp;pressure;altitude;pressure_sealevel;temperature;humidity
41467;BME280;27205;53.690;19.948;2023-05-22T00:00:41;100575.41;;;11.73;42.34
41467;BME280;27205;53.690;19.948;2023-05-22T00:05:56;100569.20;;;11.69;42.67
41467;BME280;27205;53.690;19.948;2023-05-22T00:11:03;100568.86;;;11.68;43.05
41467;BME280;27205;53.690;19.948;2023-05-22T00:16:06;100566.80;;;11.63;42.89
41467;BME280;27205;53.690;19.948;2023-05-22T00:21:10;100566.55;;;11.54;43.62
41467;BME280;27205;53.690;19.948;2023-05-22T00:26:14;100563.46;;;11.44;43.93
41467;BME280;27205;53.690;19.948;2023-05-22T00:31:21;100563.02;;;11.30;44.54
41467;BME280;27205;53.690;19.948;2023-05-22T00:36:24;100554.16;;;11.18;44.39
41467;BME280;27205;53.690;19.948;2023-05-22T00:41:28;100555.61;;;11.09;45.49
41467;BME280;27205;53.690;19.948;2023-05-22T00:46:32;100557.50;;;11.00;45.74
41467;BME280;27205;53.690;19.948;2023-05-22T00:51:36;100559.73;;;10.89;46.27
41467;BME280;27205;53.690;19.948;2023-05-22T00:56:40;100559.23;;;10.81;46.40
41467;BME280;27205;53.690;19.948;2023-05-22T01:01:44;100554.88;;;10.78;47.25
41467;BME280;27205;53.690;19.948;2023-05-22T01:06:48;100554.59;;;10.79;47.08
41467;BME280;27205;53.690;19.948;2023-05-22T01:23:14;100551.24;;;10.65;47.36
41467;BME280;27205;53.690;19.948;2023-05-22T01:33:45;100548.87;;;10.58;47.67
41467;BME280;27205;53.690;19.948;2023-05-22T01:38:50;100550.12;;;10.56;47.83
41467;BME280;27205;53.690;19.948;2023-05-22T01:43:54;100552.83;;;10.53;48.16
41467;BME280;27205;53.690;19.948;2023-05-22T01:48:58;100558.73;;;10.51;48.30
41467;BME280;27205;53.690;19.948;2023-05-22T01:54:25;100556.30;;;10.47;48.42
41467;BME280;27205;53.690;19.948;2023-05-22T01:59:55;100550.83;;;10.47;48.48
41467;BME280;27205;53.690;19.948;2023-05-22T02:05:02;100551.13;;;10.45;48.88
41467;BME280;27205;53.690;19.948;2023-05-22T02:10:09;100548.84;;;10.41;49.14
41467;BME280;27205;53.690;19.948;2023-05-22T02:15:13;100546.20;;;10.36;49.40
41467;BME280;27205;53.690;19.948;2023-05-22T02:20:17;100551.05;;;10.31;49.70
41467;BME280;27205;53.690;19.948;2023-05-22T02:25:21;100554.66;;;10.32;49.94
41467;BME280;27205;53.690;19.948;2023-05-22T02:30:24;100548.14;;;10.17;51.90
41467;BME280;27205;53.690;19.948;2023-05-22T02:35:28;100545.08;;;10.03;51.81
41467;BME280;27205;53.690;19.948;2023-05-22T02:40:31;100546.15;;;9.97;52.08
41467;BME280;27205;53.690;19.948;2023-05-22T02:45:35;100540.38;;;9.98;52.19
41467;BME280;27205;53.690;19.948;2023-05-22T02:50:38;100539.59;;;10.00;52.23
41467;BME280;27205;53.690;19.948;2023-05-22T02:55:42;100535.83;;;10.08;51.64
41467;BME280;27205;53.690;19.948;2023-05-22T03:00:46;100533.56;;;10.20;52.17
41467;BME280;27205;53.690;19.948;2023-05-22T03:05:49;100530.61;;;10.33;52.61
41467;BME280;27205;53.690;19.948;2023-05-22T03:10:57;100534.23;;;10.52;52.58
41467;BME280;27205;53.690;19.948;2023-05-22T03:16:05;100531.36;;;10.70;52.83
41467;BME280;27205;53.690;19.948;2023-05-22T03:21:08;100524.69;;;10.92;53.11
41467;BME280;27205;53.690;19.948;2023-05-22T03:26:12;100527.42;;;11.16;53.59
41467;BME280;27205;53.690;19.948;2023-05-22T03:31:16;100528.85;;;11.39;53.54
41467;BME280;27205;53.690;19.948;2023-05-22T03:36:20;100528.67;;;11.57;53.64
41467;BME280;27205;53.690;19.948;2023-05-22T03:41:23;100524.06;;;11.78;53.75
41467;BME280;27205;53.690;19.948;2023-05-22T03:46:27;100525.67;;;11.96;54.00
41467;BME280;27205;53.690;19.948;2023-05-22T03:51:31;100524.27;;;12.26;53.84
41467;BME280;27205;53.690;19.948;2023-05-22T03:56:35;100529.77;;;12.57;53.64
41467;BME280;27205;53.690;19.948;2023-05-22T04:01:39;100533.02;;;12.88;53.61
41467;BME280;27205;53.690;19.948;2023-05-22T04:06:43;100534.91;;;13.15;53.49
41467;BME280;27205;53.690;19.948;2023-05-22T04:11:47;100533.89;;;13.37;53.55
41467;BME280;27205;53.690;19.948;2023-05-22T04:16:50;100530.31;;;13.51;53.48
41467;BME280;27205;53.690;19.948;2023-05-22T04:21:57;100529.13;;;13.68;53.18
41467;BME280;27205;53.690;19.948;2023-05-22T04:27:01;100524.71;;;13.80;53.34
41467;BME280;27205;53.690;19.948;2023-05-22T04:32:05;100518.92;;;13.94;53.48
41467;BME280;27205;53.690;19.948;2023-05-22T04:37:08;100512.92;;;14.11;53.30
41467;BME280;27205;53.690;19.948;2023-05-22T04:42:12;100507.56;;;14.32;52.99
41467;BME280;27205;53.690;19.948;2023-05-22T04:47:16;100504.06;;;14.56;52.91
41467;BME280;27205;53.690;19.948;2023-05-22T04:52:20;100499.80;;;14.84;52.69
41467;BME280;27205;53.690;19.948;2023-05-22T04:57:24;100494.05;;;15.12;52.79
41467;BME280;27205;53.690;19.948;2023-05-22T05:02:27;100495.30;;;15.46;52.60
41467;BME280;27205;53.690;19.948;2023-05-22T05:07:31;100500.54;;;15.81;52.65
41467;BME280;27205;53.690;19.948;2023-05-22T05:12:35;100494.47;;;16.18;52.37
41467;BME280;27205;53.690;19.948;2023-05-22T05:17:38;100499.57;;;16.53;52.01
41467;BME280;27205;53.690;19.948;2023-05-22T05:22:42;100500.29;;;16.81;51.75
41467;BME280;27205;53.690;19.948;2023-05-22T05:27:48;100506.21;;;17.07;51.67
41467;BME280;27205;53.690;19.948;2023-05-22T05:32:51;100505.20;;;17.34;51.34
41467;BME280;27205;53.690;19.948;2023-05-22T05:37:55;100506.91;;;17.66;51.03
41467;BME280;27205;53.690;19.948;2023-05-22T05:42:58;100509.65;;;18.07;50.91
41467;BME280;27205;53.690;19.948;2023-05-22T05:48:02;100508.27;;;18.51;50.63
41467;BME280;27205;53.690;19.948;2023-05-22T05:53:06;100504.38;;;18.92;50.32
41467;BME280;27205;53.690;19.948;2023-05-22T05:58:10;100500.96;;;19.35;49.97
41467;BME280;27205;53.690;19.948;2023-05-22T06:03:13;100501.27;;;19.69;49.50
41467;BME280;27205;53.690;19.948;2023-05-22T06:08:17;100502.42;;;19.98;49.28
41467;BME280;27205;53.690;19.948;2023-05-22T06:13:22;100502.70;;;20.31;48.93
41467;BME280;27205;53.690;19.948;2023-05-22T06:18:25;100504.06;;;20.58;48.44
41467;BME280;27205;53.690;19.948;2023-05-22T06:23:29;100497.72;;;20.85;48.15
41467;BME280;27205;53.690;19.948;2023-05-22T06:28:33;100495.34;;;21.09;47.62
41467;BME280;27205;53.690;19.948;2023-05-22T06:33:36;100495.77;;;21.19;47.23
41467;BME280;27205;53.690;19.948;2023-05-22T06:38:40;100498.96;;;21.28;46.86
41467;BME280;27205;53.690;19.948;2023-05-22T06:43:43;100498.94;;;21.26;46.82
41467;BME280;27205;53.690;19.948;2023-05-22T06:48:47;100496.36;;;21.24;46.77
41467;BME280;27205;53.690;19.948;2023-05-22T06:53:51;100498.41;;;21.31;46.70
41467;BME280;27205;53.690;19.948;2023-05-22T06:58:55;100498.65;;;21.38;46.50
41467;BME280;27205;53.690;19.948;2023-05-22T07:03:59;100495.34;;;21.46;46.27
41467;BME280;27205;53.690;19.948;2023-05-22T07:09:04;100494.52;;;21.55;45.84
41467;BME280;27205;53.690;19.948;2023-05-22T07:14:08;100488.48;;;21.63;45.47
41467;BME280;27205;53.690;19.948;2023-05-22T07:19:14;100494.58;;;21.53;44.76
41467;BME280;27205;53.690;19.948;2023-05-22T07:24:18;100492.98;;;21.60;44.53
41467;BME280;27205;53.690;19.948;2023-05-22T07:29:22;100488.19;;;21.67;44.10
41467;BME280;27205;53.690;19.948;2023-05-22T07:34:25;100487.95;;;21.72;43.43
41467;BME280;27205;53.690;19.948;2023-05-22T07:39:36;100482.34;;;21.84;43.24
41467;BME280;27205;53.690;19.948;2023-05-22T07:44:40;100483.18;;;21.98;42.67
41467;BME280;27205;53.690;19.948;2023-05-22T07:49:43;100478.77;;;22.27;42.70
41467;BME280;27205;53.690;19.948;2023-05-22T07:54:47;100479.42;;;22.53;42.24
41467;BME280;27205;53.690;19.948;2023-05-22T07:59:50;100474.48;;;22.69;41.57
41467;BME280;27205;53.690;19.948;2023-05-22T08:04:54;100472.77;;;22.69;41.01
41467;BME280;27205;53.690;19.948;2023-05-22T08:10:05;100473.52;;;22.80;40.40
41467;BME280;27205;53.690;19.948;2023-05-22T08:15:10;100468.66;;;23.02;39.56
41467;BME280;27205;53.690;19.948;2023-05-22T08:20:13;100457.20;;;23.10;39.23
41467;BME280;27205;53.690;19.948;2023-05-22T08:25:17;100457.65;;;23.19;38.95
41467;BME280;27205;53.690;19.948;2023-05-22T08:30:21;100462.44;;;23.31;37.88
41467;BME280;27205;53.690;19.948;2023-05-22T08:35:24;100462.44;;;23.41;37.81
41467;BME280;27205;53.690;19.948;2023-05-22T08:40:33;100455.73;;;23.33;36.85
41467;BME280;27205;53.690;19.948;2023-05-22T08:45:39;100455.71;;;23.24;36.84
41467;BME280;27205;53.690;19.948;2023-05-22T08:50:46;100453.91;;;23.37;36.38
41467;BME280;27205;53.690;19.948;2023-05-22T08:55:52;100451.13;;;23.39;35.48
41467;BME280;27205;53.690;19.948;2023-05-22T09:00:56;100450.36;;;23.17;33.40
41467;BME280;27205;53.690;19.948;2023-05-22T09:06:01;100442.38;;;23.05;33.87
41467;BME280;27205;53.690;19.948;2023-05-22T09:11:04;100441.71;;;23.26;33.84
41467;BME280;27205;53.690;19.948;2023-05-22T09:16:09;100434.79;;;23.23;33.18
41467;BME280;27205;53.690;19.948;2023-05-22T09:21:13;100429.75;;;23.41;33.00
41467;BME280;27205;53.690;19.948;2023-05-22T09:26:32;100429.89;;;23.59;32.68
41467;BME280;27205;53.690;19.948;2023-05-22T09:31:42;100419.70;;;23.74;32.57
41467;BME280;27205;53.690;19.948;2023-05-22T09:36:47;100415.48;;;23.96;32.44
41467;BME280;27205;53.690;19.948;2023-05-22T09:41:52;100417.13;;;24.25;32.19
41467;BME280;27205;53.690;19.948;2023-05-22T09:46:55;100420.20;;;24.61;32.32
41467;BME280;27205;53.690;19.948;2023-05-22T09:51:59;100417.23;;;25.03;32.08
41467;BME280;27205;53.690;19.948;2023-05-22T09:57:05;100410.89;;;25.12;31.57
41467;BME280;27205;53.690;19.948;2023-05-22T10:02:12;100408.23;;;25.05;30.62
41467;BME280;27205;53.690;19.948;2023-05-22T10:07:22;100404.66;;;25.00;30.90
41467;BME280;27205;53.690;19.948;2023-05-22T10:12:27;100406.21;;;25.00;30.15
41467;BME280;27205;53.690;19.948;2023-05-22T10:17:35;100395.67;;;24.62;29.88
41467;BME280;27205;53.690;19.948;2023-05-22T10:22:39;100390.54;;;24.35;29.85
41467;BME280;27205;53.690;19.948;2023-05-22T10:27:44;100388.84;;;24.11;29.83
41467;BME280;27205;53.690;19.948;2023-05-22T10:43:42;100367.22;;;24.81;29.61
41467;BME280;27205;53.690;19.948;2023-05-22T10:48:47;100361.11;;;24.75;29.25
41467;BME280;27205;53.690;19.948;2023-05-22T10:53:52;100354.61;;;24.64;29.36
41467;BME280;27205;53.690;19.948;2023-05-22T10:58:57;100348.45;;;24.67;29.58
41467;BME280;27205;53.690;19.948;2023-05-22T11:09:45;100339.20;;;24.72;29.38
41467;BME280;27205;53.690;19.948;2023-05-22T11:15:06;100335.33;;;24.56;29.11
41467;BME280;27205;53.690;19.948;2023-05-22T11:20:23;100333.19;;;24.74;29.15
41467;BME280;27205;53.690;19.948;2023-05-22T11:25:33;100332.80;;;24.94;28.89
41467;BME280;27205;53.690;19.948;2023-05-22T11:30:38;100328.19;;;25.21;29.07
41467;BME280;27205;53.690;19.948;2023-05-22T11:35:42;100324.60;;;25.29;28.72
41467;BME280;27205;53.690;19.948;2023-05-22T11:40:50;100322.64;;;25.20;28.18
41467;BME280;27205;53.690;19.948;2023-05-22T11:45:58;100320.33;;;25.15;28.46
41467;BME280;27205;53.690;19.948;2023-05-22T11:51:02;100318.78;;;25.37;28.85
41467;BME280;27205;53.690;19.948;2023-05-22T11:56:06;100313.37;;;25.74;28.67
41467;BME280;27205;53.690;19.948;2023-05-22T12:01:10;100307.66;;;26.05;28.50
41467;BME280;27205;53.690;19.948;2023-05-22T12:06:14;100300.73;;;26.31;28.36
41467;BME280;27205;53.690;19.948;2023-05-22T12:11:19;100303.92;;;26.38;28.19
41467;BME280;27205;53.690;19.948;2023-05-22T12:16:23;100296.77;;;26.66;28.22
41467;BME280;27205;53.690;19.948;2023-05-22T12:21:27;100292.81;;;27.40;28.33
41467;BME280;27205;53.690;19.948;2023-05-22T12:26:32;100290.91;;;27.95;27.57
41467;BME280;27205;53.690;19.948;2023-05-22T12:31:35;100291.41;;;27.78;26.85
41467;BME280;27205;53.690;19.948;2023-05-22T12:36:42;100290.50;;;27.43;26.78
41467;BME280;27205;53.690;19.948;2023-05-22T12:41:46;100284.77;;;27.47;26.84
41467;BME280;27205;53.690;19.948;2023-05-22T12:46:51;100280.70;;;27.82;26.79
41467;BME280;27205;53.690;19.948;2023-05-22T12:51:54;100281.45;;;28.22;26.76
41467;BME280;27205;53.690;19.948;2023-05-22T12:56:58;100280.88;;;28.32;26.67
41467;BME280;27205;53.690;19.948;2023-05-22T13:02:03;100277.88;;;28.58;26.86
41467;BME280;27205;53.690;19.948;2023-05-22T13:07:07;100275.64;;;28.98;26.54
41467;BME280;27205;53.690;19.948;2023-05-22T13:12:11;100275.08;;;29.63;26.30
41467;BME280;27205;53.690;19.948;2023-05-22T13:17:15;100269.34;;;29.81;26.06
41467;BME280;27205;53.690;19.948;2023-05-22T13:22:18;100265.51;;;29.71;25.91
41467;BME280;27205;53.690;19.948;2023-05-22T13:27:22;100263.39;;;29.71;25.64
41467;BME280;27205;53.690;19.948;2023-05-22T13:32:26;100258.19;;;29.83;25.39
41467;BME280;27205;53.690;19.948;2023-05-22T13:37:29;100255.02;;;29.64;25.56
41467;BME280;27205;53.690;19.948;2023-05-22T13:42:33;100249.65;;;29.48;25.15
41467;BME280;27205;53.690;19.948;2023-05-22T13:47:37;100239.87;;;29.33;25.43
41467;BME280;27205;53.690;19.948;2023-05-22T13:52:40;100235.77;;;29.42;25.34
41467;BME280;27205;53.690;19.948;2023-05-22T13:57:44;100233.45;;;29.47;25.24
41467;BME280;27205;53.690;19.948;2023-05-22T14:02:48;100229.88;;;29.38;25.01
41467;BME280;27205;53.690;19.948;2023-05-22T14:07:51;100230.66;;;30.13;25.00
41467;BME280;27205;53.690;19.948;2023-05-22T14:12:56;100235.21;;;33.52;24.12
41467;BME280;27205;53.690;19.948;2023-05-22T14:17:59;100242.34;;;39.76;22.33
41467;BME280;27205;53.690;19.948;2023-05-22T14:23:03;100244.69;;;44.19;20.79
41467;BME280;27205;53.690;19.948;2023-05-22T14:28:11;100243.77;;;44.91;19.56
41467;BME280;27205;53.690;19.948;2023-05-22T14:33:14;100235.91;;;43.50;18.13
41467;BME280;27205;53.690;19.948;2023-05-22T14:38:18;100226.95;;;40.33;18.49
41467;BME280;27205;53.690;19.948;2023-05-22T14:43:22;100218.21;;;38.50;18.53
41467;BME280;27205;53.690;19.948;2023-05-22T14:48:25;100210.27;;;37.85;18.50
41467;BME280;27205;53.690;19.948;2023-05-22T14:53:31;100217.44;;;41.69;17.14
41467;BME280;27205;53.690;19.948;2023-05-22T14:58:35;100211.23;;;41.88;17.14
41467;BME280;27205;53.690;19.948;2023-05-22T15:03:38;100211.35;;;43.11;16.72
41467;BME280;27205;53.690;19.948;2023-05-22T15:08:42;100224.58;;;47.07;16.00
41467;BME280;27205;53.690;19.948;2023-05-22T15:13:46;100221.41;;;48.80;15.07
41467;BME280;27205;53.690;19.948;2023-05-22T15:18:50;100215.58;;;48.38;14.88
41467;BME280;27205;53.690;19.948;2023-05-22T15:23:54;100204.83;;;46.10;14.94
41467;BME280;27205;53.690;19.948;2023-05-22T15:28:58;100194.09;;;44.39;14.74
41467;BME280;27205;53.690;19.948;2023-05-22T15:34:03;100177.96;;;41.70;14.91
41467;BME280;27205;53.690;19.948;2023-05-22T15:39:07;100162.09;;;38.80;15.05
41467;BME280;27205;53.690;19.948;2023-05-22T15:44:10;100147.48;;;37.37;15.38
41467;BME280;27205;53.690;19.948;2023-05-22T15:49:14;100139.80;;;35.39;16.00
41467;BME280;27205;53.690;19.948;2023-05-22T15:54:17;100130.55;;;33.68;16.59
41467;BME280;27205;53.690;19.948;2023-05-22T15:59:21;100127.48;;;32.19;17.10
41467;BME280;27205;53.690;19.948;2023-05-22T16:04:24;100124.98;;;31.62;17.54
41467;BME280;27205;53.690;19.948;2023-05-22T16:09:28;100125.36;;;31.10;17.83
41467;BME280;27205;53.690;19.948;2023-05-22T16:14:35;100124.63;;;30.51;18.13
41467;BME280;27205;53.690;19.948;2023-05-22T16:19:38;100125.91;;;30.08;18.86
41467;BME280;27205;53.690;19.948;2023-05-22T16:24:42;100118.84;;;29.77;19.42
41467;BME280;27205;53.690;19.948;2023-05-22T16:29:46;100115.24;;;29.44;19.77
41467;BME280;27205;53.690;19.948;2023-05-22T16:34:49;100113.66;;;28.97;20.20
41467;BME280;27205;53.690;19.948;2023-05-22T16:39:53;100113.55;;;28.49;20.84
41467;BME280;27205;53.690;19.948;2023-05-22T16:44:56;100107.00;;;28.08;21.18
41467;BME280;27205;53.690;19.948;2023-05-22T16:50:00;100102.08;;;27.75;21.58
41467;BME280;27205;53.690;19.948;2023-05-22T16:55:04;100104.66;;;27.51;22.09
41467;BME280;27205;53.690;19.948;2023-05-22T17:00:08;100104.10;;;27.31;22.38
41467;BME280;27205;53.690;19.948;2023-05-22T17:05:13;100103.80;;;27.08;22.46
41467;BME280;27205;53.690;19.948;2023-05-22T17:10:17;100098.90;;;26.93;22.62
41467;BME280;27205;53.690;19.948;2023-05-22T17:15:20;100098.39;;;26.76;23.09
41467;BME280;27205;53.690;19.948;2023-05-22T17:20:24;100097.69;;;26.68;23.28
41467;BME280;27205;53.690;19.948;2023-05-22T17:25:28;100097.58;;;26.67;23.85
41467;BME280;27205;53.690;19.948;2023-05-22T17:30:31;100097.10;;;26.51;24.07
41467;BME280;27205;53.690;19.948;2023-05-22T17:35:35;100097.05;;;26.95;24.15
41467;BME280;27205;53.690;19.948;2023-05-22T17:40:38;100092.80;;;26.60;24.51
41467;BME280;27205;53.690;19.948;2023-05-22T17:45:48;100091.32;;;25.69;24.85
41467;BME280;27205;53.690;19.948;2023-05-22T17:50:55;100090.88;;;25.02;25.59
41467;BME280;27205;53.690;19.948;2023-05-22T17:55:59;100087.15;;;24.45;26.33
41467;BME280;27205;53.690;19.948;2023-05-22T18:01:02;100087.60;;;24.83;26.44
41467;BME280;27205;53.690;19.948;2023-05-22T18:06:06;100081.18;;;25.11;26.99
41467;BME280;27205;53.690;19.948;2023-05-22T18:11:10;100075.09;;;24.56;27.94
41467;BME280;27205;53.690;19.948;2023-05-22T18:16:16;100074.02;;;23.80;28.55
41467;BME280;27205;53.690;19.948;2023-05-22T18:21:21;100068.20;;;23.17;28.80
41467;BME280;27205;53.690;19.948;2023-05-22T18:26:25;100070.07;;;22.69;28.99
41467;BME280;27205;53.690;19.948;2023-05-22T18:31:31;100072.50;;;22.36;29.39
41467;BME280;27205;53.690;19.948;2023-05-22T18:36:36;100072.33;;;22.01;29.86
41467;BME280;27205;53.690;19.948;2023-05-22T18:41:39;100068.36;;;21.60;30.59
41467;BME280;27205;53.690;19.948;2023-05-22T18:46:42;100069.83;;;21.03;30.78
41467;BME280;27205;53.690;19.948;2023-05-22T18:51:47;100074.73;;;20.53;31.32
41467;BME280;27205;53.690;19.948;2023-05-22T18:56:50;100077.20;;;20.08;31.96
41467;BME280;27205;53.690;19.948;2023-05-22T19:01:53;100074.31;;;19.71;32.29
41467;BME280;27205;53.690;19.948;2023-05-22T19:06:57;100071.27;;;19.36;32.45
41467;BME280;27205;53.690;19.948;2023-05-22T19:12:01;100068.59;;;19.04;32.88
41467;BME280;27205;53.690;19.948;2023-05-22T19:17:04;100065.33;;;18.76;33.34
41467;BME280;27205;53.690;19.948;2023-05-22T19:22:08;100065.53;;;18.51;33.69
41467;BME280;27205;53.690;19.948;2023-05-22T19:27:11;100060.35;;;18.27;34.00
41467;BME280;27205;53.690;19.948;2023-05-22T19:32:15;100059.44;;;18.03;34.27
41467;BME280;27205;53.690;19.948;2023-05-22T19:37:18;100062.59;;;17.81;34.34
41467;BME280;27205;53.690;19.948;2023-05-22T19:42:22;100057.40;;;17.58;35.39
41467;BME280;27205;53.690;19.948;2023-05-22T19:47:26;100057.25;;;17.39;35.35
41467;BME280;27205;53.690;19.948;2023-05-22T19:52:29;100058.45;;;17.24;36.15
41467;BME280;27205;53.690;19.948;2023-05-22T19:57:33;100056.16;;;17.12;36.48
41467;BME280;27205;53.690;19.948;2023-05-22T20:02:37;100056.05;;;16.99;36.93
41467;BME280;27205;53.690;19.948;2023-05-22T20:07:42;100057.50;;;16.85;37.42
41467;BME280;27205;53.690;19.948;2023-05-22T20:12:45;100054.36;;;16.70;37.73
41467;BME280;27205;53.690;19.948;2023-05-22T20:17:50;100054.58;;;16.55;37.93
41467;BME280;27205;53.690;19.948;2023-05-22T20:22:57;100050.15;;;16.39;38.53
41467;BME280;27205;53.690;19.948;2023-05-22T20:28:02;100048.16;;;16.27;38.86
41467;BME280;27205;53.690;19.948;2023-05-22T20:33:06;100041.18;;;16.12;39.34
41467;BME280;27205;53.690;19.948;2023-05-22T20:38:10;100042.89;;;15.99;39.56
41467;BME280;27205;53.690;19.948;2023-05-22T20:43:16;100039.70;;;15.86;39.77
41467;BME280;27205;53.690;19.948;2023-05-22T20:48:20;100039.67;;;15.71;39.76
41467;BME280;27205;53.690;19.948;2023-05-22T20:53:24;100044.34;;;15.56;40.29
41467;BME280;27205;53.690;19.948;2023-05-22T20:58:28;100046.21;;;15.40;40.59
41467;BME280;27205;53.690;19.948;2023-05-22T21:03:31;100050.72;;;15.29;41.14
41467;BME280;27205;53.690;19.948;2023-05-22T21:08:35;100048.08;;;15.21;41.40
41467;BME280;27205;53.690;19.948;2023-05-22T21:13:39;100044.48;;;15.09;41.83
41467;BME280;27205;53.690;19.948;2023-05-22T21:18:42;100047.08;;;15.00;41.98
41467;BME280;27205;53.690;19.948;2023-05-22T21:23:46;100043.09;;;14.91;42.19
41467;BME280;27205;53.690;19.948;2023-05-22T21:28:51;100045.96;;;14.81;42.52
41467;BME280;27205;53.690;19.948;2023-05-22T21:33:55;100044.52;;;14.73;42.51
41467;BME280;27205;53.690;19.948;2023-05-22T21:38:58;100041.85;;;14.66;42.99
41467;BME280;27205;53.690;19.948;2023-05-22T21:44:02;100038.11;;;14.58;43.52
41467;BME280;27205;53.690;19.948;2023-05-22T21:49:05;100038.13;;;14.53;43.87
41467;BME280;27205;53.690;19.948;2023-05-22T21:54:11;100037.94;;;14.47;44.28
41467;BME280;27205;53.690;19.948;2023-05-22T21:59:15;100043.05;;;14.44;44.58
41467;BME280;27205;53.690;19.948;2023-05-22T22:04:20;100045.91;;;14.40;44.68
41467;BME280;27205;53.690;19.948;2023-05-22T22:09:23;100048.44;;;14.35;44.95
41467;BME280;27205;53.690;19.948;2023-05-22T22:14:27;100045.86;;;14.29;45.32
41467;BME280;27205;53.690;19.948;2023-05-22T22:19:31;100044.61;;;14.24;45.46
41467;BME280;27205;53.690;19.948;2023-05-22T22:24:36;100036.30;;;14.16;45.62
41467;BME280;27205;53.690;19.948;2023-05-22T22:29:40;100039.18;;;14.09;46.13
41467;BME280;27205;53.690;19.948;2023-05-22T22:34:45;100035.54;;;14.01;46.19
41467;BME280;27205;53.690;19.948;2023-05-22T22:39:49;100033.37;;;13.90;46.31
41467;BME280;27205;53.690;19.948;2023-05-22T22:44:52;100031.55;;;13.78;46.71
41467;BME280;27205;53.690;19.948;2023-05-22T22:49:56;100027.73;;;13.68;46.91
41467;BME280;27205;53.690;19.948;2023-05-22T22:55:00;100024.02;;;13.60;47.34
41467;BME280;27205;53.690;19.948;2023-05-22T23:00:04;100022.34;;;13.47;46.82
41467;BME280;27205;53.690;19.948;2023-05-22T23:05:09;100012.23;;;13.34;47.51
41467;BME280;27205;53.690;19.948;2023-05-22T23:10:13;100012.17;;;13.25;47.55
41467;BME280;27205;53.690;19.948;2023-05-22T23:15:18;100010.77;;;13.15;48.03
41467;BME280;27205;53.690;19.948;2023-05-22T23:20:22;100005.10;;;13.08;48.29
41467;BME280;27205;53.690;19.948;2023-05-22T23:25:25;99999.52;;;13.03;48.52
41467;BME280;27205;53.690;19.948;2023-05-22T23:30:29;99995.27;;;12.97;48.76
41467;BME280;27205;53.690;19.948;2023-05-22T23:35:33;99996.46;;;12.90;48.96
41467;BME280;27205;53.690;19.948;2023-05-22T23:40:36;100000.30;;;12.85;49.17
41467;BME280;27205;53.690;19.948;2023-05-22T23:45:40;99999.96;;;12.82;49.61
41467;BME280;27205;53.690;19.948;2023-05-22T23:50:44;99998.52;;;12.79;50.17
41467;BME280;27205;53.690;19.948;2023-05-22T23:55:47;99999.35;;;12.73;50.46
